Time;durP1;ratioP1;P1;durP2;ratioP2;P2;SDS_P1;SDS_P2;PMS_P1;PMS_P2;Temp;Humidity;BMP_temperature;BMP_pressure;BME280_temperature;BME280_humidity;BME280_pressure;Samples;Min_cycle;Max_cycle;Signal;HPM_P1;HPM_P2
2023/10/02 00:01:06;;;;;;;6.03;3.10;;;19.60;99.90;;;;;;5090331;28;20034;-89
2023/10/02 00:03:31;;;;;;;5.97;3.25;;;19.50;99.90;;;;;;5095271;28;20089;-92
2023/10/02 00:05:57;;;;;;;7.60;3.23;;;19.50;99.90;;;;;;5110689;28;20084;-88
2023/10/02 00:08:32;;;;;;;7.95;3.75;;;19.50;99.90;;;;;;5110662;28;20273;-88
2023/10/02 00:11:39;;;;;;;7.47;3.72;;;19.50;99.90;;;;;;5092387;28;20027;-86
2023/10/02 00:14:25;;;;;;;6.18;3.70;;;19.40;99.90;;;;;;5110373;28;20103;-86
2023/10/02 00:16:59;;;;;;;7.03;3.65;;;19.40;99.90;;;;;;5089984;28;20049;-90
2023/10/02 00:19:41;;;;;;;5.90;3.53;;;19.40;99.90;;;;;;5111059;28;20023;-88
2023/10/02 00:22:09;;;;;;;8.45;3.75;;;19.30;99.90;;;;;;5091848;28;20452;-87
2023/10/02 00:24:40;;;;;;;6.50;4.07;;;19.30;99.90;;;;;;5108276;28;20566;-86
2023/10/02 00:27:07;;;;;;;6.13;3.75;;;19.30;99.90;;;;;;5110064;28;20073;-92
2023/10/02 00:29:33;;;;;;;8.38;4.03;;;19.40;99.90;;;;;;5092081;28;20020;-85
2023/10/02 00:31:59;;;;;;;9.15;3.95;;;19.40;99.90;;;;;;5110437;28;20088;-86
2023/10/02 00:34:32;;;;;;;9.85;3.95;;;19.30;99.90;;;;;;5110711;28;20012;-87
2023/10/02 00:37:08;;;;;;;6.82;3.85;;;19.20;99.90;;;;;;5110873;28;20376;-87
2023/10/02 00:39:36;;;;;;;7.32;3.70;;;19.20;99.90;;;;;;5108192;28;20023;-86
2023/10/02 00:44:51;;;;;;;7.18;3.85;;;19.10;99.90;;;;;;5109968;28;20034;-86
2023/10/02 00:50:11;;;;;;;6.63;3.75;;;19.00;99.90;;;;;;5109680;28;20058;-88
2023/10/02 00:52:55;;;;;;;6.30;3.38;;;18.90;99.90;;;;;;5072510;28;20123;-86
2023/10/02 00:55:26;;;;;;;5.90;3.50;;;18.90;99.90;;;;;;5090109;28;20017;-86
2023/10/02 00:57:57;;;;;;;6.15;3.33;;;18.80;99.90;;;;;;5113086;28;20028;-86
2023/10/02 01:00:31;;;;;;;6.28;3.30;;;18.80;99.90;;;;;;5094718;28;20073;-86
2023/10/02 01:02:58;;;;;;;4.03;2.80;;;18.80;99.90;;;;;;5076142;28;20040;-87
2023/10/02 01:05:42;;;;;;;6.35;3.30;;;18.70;99.90;;;;;;5102365;28;20091;-86
2023/10/02 01:08:24;;;;;;;8.70;3.30;;;18.70;99.90;;;;;;5112183;28;20043;-90
2023/10/02 01:10:58;;;;;;;6.32;3.08;;;18.70;99.90;;;;;;5094599;28;20403;-86
2023/10/02 01:13:29;;;;;;;4.60;3.08;;;18.60;99.90;;;;;;5113802;28;20226;-93
2023/10/02 01:15:56;;;;;;;7.65;3.00;;;18.50;99.90;;;;;;5095772;28;20024;-87
2023/10/02 01:18:22;;;;;;;5.33;3.00;;;18.40;99.90;;;;;;5113695;28;20027;-85
2023/10/02 01:20:53;;;;;;;6.35;3.17;;;18.40;99.90;;;;;;5113154;28;20068;-86
2023/10/02 01:23:23;;;;;;;5.13;3.10;;;18.40;99.90;;;;;;5094365;28;20543;-88
2023/10/02 01:25:49;;;;;;;5.88;2.97;;;18.30;99.90;;;;;;5113416;28;20031;-89
2023/10/02 01:28:20;;;;;;;4.90;2.90;;;18.20;99.90;;;;;;5111183;28;20020;-86
2023/10/02 01:30:47;;;;;;;4.78;2.90;;;18.30;99.90;;;;;;5113483;28;20023;-90
2023/10/02 01:33:26;;;;;;;6.93;2.95;;;18.30;99.90;;;;;;5113434;28;20016;-89
2023/10/02 01:35:52;;;;;;;6.53;2.95;;;18.20;99.90;;;;;;5113481;28;20387;-85
2023/10/02 01:38:26;;;;;;;4.82;2.85;;;18.30;99.90;;;;;;5093921;28;20031;-89
2023/10/02 01:40:54;;;;;;;3.17;2.50;;;18.20;99.90;;;;;;5092769;28;20023;-86
2023/10/02 01:43:26;;;;;;;4.13;2.65;;;18.20;99.90;;;;;;5092806;28;20028;-90
2023/10/02 01:45:56;;;;;;;4.15;2.80;;;18.20;99.90;;;;;;5074599;28;20024;-87
2023/10/02 01:48:36;;;;;;;4.05;2.60;;;18.20;99.90;;;;;;5098694;28;20024;-86
2023/10/02 01:51:15;;;;;;;6.18;2.83;;;18.20;99.90;;;;;;5113565;28;20406;-86
2023/10/02 01:53:57;;;;;;;6.03;2.67;;;18.20;99.90;;;;;;5113192;28;20463;-88
2023/10/02 01:56:29;;;;;;;4.22;2.67;;;18.10;99.90;;;;;;5112128;28;20084;-86
2023/10/02 01:59:14;;;;;;;4.30;2.60;;;18.10;99.90;;;;;;5093833;28;20036;-86
2023/10/02 02:01:46;;;;;;;4.93;2.58;;;18.10;99.90;;;;;;5093718;28;20040;-87
2023/10/02 02:04:14;;;;;;;4.70;2.60;;;18.00;99.90;;;;;;5104788;28;20483;-86
2023/10/02 02:06:51;;;;;;;2.60;2.03;;;18.00;99.90;;;;;;5112799;28;20028;-85
2023/10/02 02:09:24;;;;;;;5.13;2.22;;;18.00;99.90;;;;;;5112142;28;20026;-87
2023/10/02 02:12:14;;;;;;;4.50;2.47;;;18.00;99.90;;;;;;5093901;28;20028;-88
2023/10/02 02:14:52;;;;;;;4.82;2.50;;;18.10;99.90;;;;;;5112740;28;20015;-90
2023/10/02 02:17:23;;;;;;;5.72;2.25;;;18.00;99.90;;;;;;5112560;28;20505;-86
2023/10/02 02:19:49;;;;;;;4.43;2.38;;;18.00;99.90;;;;;;5111538;28;20019;-86
2023/10/02 02:22:16;;;;;;;3.60;2.38;;;18.00;99.90;;;;;;5112619;28;20036;-86
2023/10/02 02:24:42;;;;;;;4.72;2.20;;;18.10;99.90;;;;;;5112563;28;20027;-88
2023/10/02 02:27:08;;;;;;;7.18;2.33;;;18.10;99.90;;;;;;5111846;28;20047;-85
2023/10/02 02:29:34;;;;;;;4.40;2.45;;;18.10;99.90;;;;;;5095071;28;20024;-90
2023/10/02 02:32:00;;;;;;;4.75;2.80;;;18.10;99.90;;;;;;5094256;28;20066;-92
2023/10/02 02:34:26;;;;;;;3.58;2.67;;;18.20;99.90;;;;;;5112478;28;20916;-92
2023/10/02 02:36:54;;;;;;;5.18;2.50;;;18.20;99.90;;;;;;5112179;28;20077;-87
2023/10/02 02:39:22;;;;;;;3.50;2.22;;;18.20;99.90;;;;;;5112513;28;20403;-85
2023/10/02 02:41:48;;;;;;;;;;;18.20;99.90;;;;;;5111557;28;20053;-87
2023/10/02 02:47:04;;;;;;;4.68;2.58;;;18.10;99.90;;;;;;5111929;28;20383;-89
2023/10/02 02:49:48;;;;;;;3.42;2.65;;;18.10;99.90;;;;;;5112274;28;20077;-89
2023/10/02 02:52:15;;;;;;;3.38;2.45;;;18.10;99.90;;;;;;5093683;28;20024;-87
2023/10/02 02:54:44;;;;;;;5.38;3.10;;;18.20;99.90;;;;;;5111847;28;20395;-87
2023/10/02 02:57:10;;;;;;;6.75;3.10;;;18.20;99.90;;;;;;5101996;28;20491;-91
2023/10/02 02:59:38;;;;;;;4.45;2.75;;;18.20;99.90;;;;;;5111825;28;20066;-89
2023/10/02 03:02:10;;;;;;;4.47;2.85;;;18.20;99.90;;;;;;5112353;28;20032;-92
2023/10/02 03:04:38;;;;;;;5.05;2.95;;;18.20;99.90;;;;;;5112783;28;20020;-86
2023/10/02 03:07:29;;;;;;;5.75;3.30;;;18.20;99.90;;;;;;5112530;28;20027;-91
2023/10/02 03:09:56;;;;;;;5.57;3.20;;;18.30;99.90;;;;;;5111796;28;20030;-85
2023/10/02 03:12:22;;;;;;;5.85;3.10;;;18.30;99.90;;;;;;5101585;28;20776;-87
2023/10/02 03:14:49;;;;;;;7.97;3.45;;;18.30;99.90;;;;;;5091173;28;20578;-85
2023/10/02 03:17:28;;;;;;;5.70;3.40;;;18.30;99.90;;;;;;5091234;28;20027;-86
2023/10/02 03:19:56;;;;;;;5.28;3.08;;;18.30;99.90;;;;;;5110838;28;20031;-88
2023/10/02 03:22:24;;;;;;;8.23;3.75;;;18.30;99.90;;;;;;5111225;28;20059;-86
2023/10/02 03:24:53;;;;;;;4.65;3.08;;;18.30;99.90;;;;;;5111217;28;20024;-87
2023/10/02 03:27:21;;;;;;;6.10;3.45;;;18.30;99.90;;;;;;5091957;28;20512;-91
2023/10/02 03:29:49;;;;;;;5.50;2.97;;;18.30;99.90;;;;;;5110729;28;20016;-91
2023/10/02 03:32:14;;;;;;;5.28;3.05;;;18.30;99.90;;;;;;5111166;28;20062;-86
2023/10/02 03:34:40;;;;;;;6.53;3.80;;;18.30;99.90;;;;;;5110907;28;20058;-88
2023/10/02 03:39:59;;;;;;;6.75;3.50;;;18.20;99.90;;;;;;5112139;28;20020;-92
2023/10/02 03:42:26;;;;;;;3.92;2.70;;;18.20;99.90;;;;;;5108994;28;20042;-86
2023/10/02 03:44:58;;;;;;;4.03;2.50;;;18.10;99.90;;;;;;5111077;28;20028;-87
2023/10/02 03:47:33;;;;;;;7.50;2.78;;;18.10;99.90;;;;;;5110691;28;20016;-90
2023/10/02 03:50:03;;;;;;;5.00;2.83;;;18.10;99.90;;;;;;5092518;28;20036;-91
2023/10/02 03:52:31;;;;;;;4.93;2.83;;;18.10;99.90;;;;;;5088630;28;20374;-86
2023/10/02 03:54:57;;;;;;;;;;;18.00;99.90;;;;;;5098578;28;20085;-86
2023/10/02 03:57:47;;;;;;;4.65;2.67;;;18.00;99.90;;;;;;5110631;28;20375;-86
2023/10/02 04:00:27;;;;;;;3.80;2.65;;;17.80;99.90;;;;;;5110697;28;20016;-86
2023/10/02 04:02:54;;;;;;;5.82;3.17;;;17.80;99.90;;;;;;5110431;28;20433;-89
2023/10/02 04:05:32;;;;;;;4.35;3.00;;;17.80;99.90;;;;;;5108537;28;20554;-89
2023/10/02 04:10:56;;;;;;;4.78;3.28;;;17.90;99.90;;;;;;5110960;28;20030;-90
2023/10/02 04:13:25;;;;;;;5.78;3.53;;;17.90;99.90;;;;;;5092166;28;20024;-91
2023/10/02 04:16:28;;;;;;;6.60;3.50;;;17.90;99.90;;;;;;5090402;28;20039;-85
2023/10/02 04:18:49;;;;;;;5.80;3.00;;;17.80;99.90;;;;;;5101754;28;20023;-86
2023/10/02 04:21:19;;;;;;;6.80;3.97;;;17.90;99.90;;;;;;5090768;28;20036;-88
2023/10/02 04:23:45;;;;;;;6.53;3.40;;;17.90;99.90;;;;;;5110613;28;20055;-90
2023/10/02 04:26:19;;;;;;;5.00;3.17;;;17.90;99.90;;;;;;5111077;28;20061;-92
2023/10/02 04:28:55;;;;;;;7.35;3.47;;;17.90;99.90;;;;;;5110410;28;20054;-86
2023/10/02 04:31:27;;;;;;;5.28;3.30;;;17.90;99.90;;;;;;5109684;28;20023;-90
2023/10/02 04:34:15;;;;;;;5.65;3.33;;;17.90;99.90;;;;;;5091727;28;20062;-89
2023/10/02 04:36:41;;;;;;;5.55;3.50;;;17.90;99.90;;;;;;5109736;28;20023;-89
2023/10/02 04:39:31;;;;;;;4.45;3.10;;;17.90;99.90;;;;;;5109939;28;20035;-86
2023/10/02 04:42:11;;;;;;;5.53;3.00;;;17.80;99.90;;;;;;5108513;28;20036;-87
2023/10/02 04:44:44;;;;;;;5.35;3.50;;;;;;;;;;5091907;28;20394;-91
2023/10/02 04:47:20;;;;;;;5.25;3.28;;;17.80;99.90;;;;;;5111057;28;20058;-85
2023/10/02 04:52:53;;;;;;;7.25;3.58;;;17.90;99.90;;;;;;5109975;28;20055;-92
2023/10/02 04:55:22;;;;;;;7.95;3.85;;;17.80;99.90;;;;;;5109436;28;20027;-92
2023/10/02 04:57:50;;;;;;;6.45;3.67;;;17.80;99.90;;;;;;5110082;28;20387;-85
2023/10/02 05:00:35;;;;;;;7.05;3.58;;;17.80;99.90;;;;;;5109904;28;20099;-86
2023/10/02 05:03:18;;;;;;;7.53;3.78;;;17.80;99.90;;;;;;5109766;28;20120;-86
2023/10/02 05:05:51;;;;;;;6.70;3.85;;;17.80;99.90;;;;;;5110913;28;20024;-86
2023/10/02 05:08:19;;;;;;;6.97;3.90;;;17.70;99.90;;;;;;5107033;28;20063;-85
2023/10/02 05:10:50;;;;;;;8.32;3.97;;;17.70;99.90;;;;;;5110298;28;20042;-85
2023/10/02 05:13:44;;;;;;;7.63;4.18;;;17.70;99.90;;;;;;5109978;28;20035;-85
2023/10/02 05:16:12;;;;;;;5.97;3.55;;;17.70;99.90;;;;;;5109326;28;20055;-86
2023/10/02 05:18:51;;;;;;;7.15;3.92;;;17.70;99.90;;;;;;5091202;28;20038;-92
2023/10/02 05:21:17;;;;;;;7.68;3.70;;;;;;;;;;5108294;28;20536;-85
2023/10/02 05:24:00;;;;;;;5.60;3.55;;;17.70;99.90;;;;;;5107917;28;20024;-86
2023/10/02 05:26:39;;;;;;;8.48;3.80;;;17.70;99.90;;;;;;5109314;28;20102;-91
2023/10/02 05:29:07;;;;;;;6.30;3.53;;;17.70;99.90;;;;;;5091456;28;20148;-92
2023/10/02 05:31:41;;;;;;;7.32;4.03;;;17.70;99.90;;;;;;5109952;28;20023;-87
2023/10/02 05:34:24;;;;;;;7.00;4.00;;;17.60;99.90;;;;;;5104835;28;20059;-86
2023/10/02 05:37:39;;;;;;;6.90;3.78;;;17.60;99.90;;;;;;5098304;28;20152;-83
2023/10/02 05:39:40;;;;;;;9.63;3.85;;;17.60;99.90;;;;;;5085343;28;20039;-87
2023/10/02 05:42:15;;;;;;;11.50;4.07;;;17.60;99.90;;;;;;5077331;28;20063;-89
2023/10/02 05:44:44;;;;;;;8.23;4.13;;;17.50;99.90;;;;;;5109213;28;20028;-88
2023/10/02 05:47:15;;;;;;;10.10;4.20;;;17.50;99.90;;;;;;5112949;28;20398;-85
2023/10/02 05:49:53;;;;;;;7.50;4.35;;;17.50;99.90;;;;;;5112570;28;20056;-85
2023/10/02 05:52:20;;;;;;;8.88;4.32;;;17.50;99.90;;;;;;5112629;28;20063;-85
2023/10/02 05:54:47;;;;;;;7.50;4.07;;;17.50;99.90;;;;;;5095582;28;20028;-85
2023/10/02 05:57:16;;;;;;;11.27;4.47;;;17.40;99.90;;;;;;5113598;28;20034;-88
2023/10/02 05:59:45;;;;;;;9.57;4.30;;;17.50;99.90;;;;;;5088859;28;20039;-87
2023/10/02 06:02:19;;;;;;;6.95;3.83;;;17.50;99.90;;;;;;5101492;27;20031;-86
2023/10/02 06:04:49;;;;;;;8.57;3.88;;;17.50;99.90;;;;;;5088989;28;20027;-88
2023/10/02 06:07:40;;;;;;;9.00;4.18;;;17.50;99.90;;;;;;5101903;28;20023;-89
2023/10/02 06:10:08;;;;;;;9.60;4.50;;;17.50;99.90;;;;;;5109447;28;20028;-88
2023/10/02 06:12:35;;;;;;;9.63;5.00;;;17.50;99.90;;;;;;5085088;28;20458;-86
2023/10/02 06:15:15;;;;;;;11.80;4.75;;;17.50;99.90;;;;;;5104949;28;20047;-86
2023/10/02 06:17:44;;;;;;;10.07;5.28;;;17.50;99.90;;;;;;5090827;28;20039;-85
2023/10/02 06:20:17;;;;;;;16.35;5.80;;;17.50;99.90;;;;;;5089170;28;20024;-85
2023/10/02 06:22:47;;;;;;;10.77;5.32;;;17.50;99.90;;;;;;5105982;28;20078;-87
2023/10/02 06:25:18;;;;;;;10.70;4.80;;;17.50;99.90;;;;;;5090869;28;20509;-85
2023/10/02 06:27:45;;;;;;;9.23;5.00;;;17.60;99.90;;;;;;5107136;28;20479;-87
2023/10/02 06:30:16;;;;;;;9.93;4.95;;;17.70;99.90;;;;;;5109938;28;20050;-87
2023/10/02 06:32:54;;;;;;;8.48;4.63;;;17.60;99.90;;;;;;5110624;28;20032;-87
2023/10/02 06:35:26;;;;;;;9.77;4.43;;;17.70;99.90;;;;;;5106375;28;20103;-87
2023/10/02 06:37:52;;;;;;;7.57;4.40;;;17.80;99.90;;;;;;5112068;28;20036;-88
2023/10/02 06:40:23;;;;;;;7.15;4.60;;;17.80;99.90;;;;;;5112299;28;20015;-88
2023/10/02 06:42:51;;;;;;;7.25;4.38;;;17.70;99.90;;;;;;5093621;28;20452;-90
2023/10/02 06:45:21;;;;;;;6.63;4.30;;;17.80;99.90;;;;;;5112164;28;20020;-85
2023/10/02 06:47:50;;;;;;;7.13;3.90;;;18.80;99.90;;;;;;5111871;28;20031;-86
2023/10/02 06:50:30;;;;;;;8.27;4.75;;;17.70;99.90;;;;;;5094202;28;20019;-87
2023/10/02 06:52:59;;;;;;;7.18;4.10;;;17.70;99.90;;;;;;5109045;28;20035;-87
2023/10/02 06:55:26;;;;;;;8.50;4.57;;;17.70;99.90;;;;;;5093058;28;20027;-90
2023/10/02 06:57:53;;;;;;;6.78;4.03;;;17.70;99.90;;;;;;5093484;28;20083;-90
2023/10/02 07:00:21;;;;;;;8.25;4.03;;;17.70;99.90;;;;;;5093864;28;20027;-87
2023/10/02 07:02:56;;;;;;;6.70;3.83;;;17.80;99.90;;;;;;5105565;28;20039;-89
2023/10/02 07:05:32;;;;;;;5.88;4.07;;;17.80;99.90;;;;;;5100202;28;20036;-86
2023/10/02 07:08:27;;;;;;;9.13;4.82;;;17.80;99.90;;;;;;5088341;28;20023;-89
2023/10/02 07:10:53;;;;;;;10.27;4.65;;;17.90;99.90;;;;;;5090104;28;20052;-86
2023/10/02 07:13:20;;;;;;;9.68;4.72;;;17.90;99.90;;;;;;5104129;28;20032;-87
2023/10/02 07:15:59;;;;;;;8.98;4.45;;;18.00;99.90;;;;;;5090433;28;20410;-89
2023/10/02 07:18:37;;;;;;;9.70;5.03;;;18.00;99.90;;;;;;5091552;28;20103;-89
2023/10/02 07:21:07;;;;;;;11.48;5.70;;;18.10;99.90;;;;;;5075339;28;20024;-85
2023/10/02 07:23:37;;;;;;;10.15;5.13;;;18.10;99.90;;;;;;5110192;28;20028;-86
2023/10/02 07:26:17;;;;;;;15.15;5.75;;;18.20;99.90;;;;;;5092858;28;20364;-85
2023/10/02 07:28:50;;;;;;;13.43;5.82;;;18.30;99.90;;;;;;5090675;28;20510;-85
2023/10/02 07:31:22;;;;;;;13.85;6.13;;;18.40;99.90;;;;;;5109266;27;20085;-89
2023/10/02 07:33:48;;;;;;;15.60;5.88;;;18.50;99.90;;;;;;5111841;28;20019;-88
2023/10/02 07:36:14;;;;;;;14.13;6.00;;;18.60;99.90;;;;;;5110818;28;20475;-87
2023/10/02 07:38:47;;;;;;;11.68;5.90;;;18.70;99.90;;;;;;5111071;28;20016;-87
2023/10/02 07:41:24;;;;;;;12.43;6.40;;;18.80;99.90;;;;;;5110663;28;20147;-88
2023/10/02 07:43:54;;;;;;;11.60;6.20;;;18.80;99.90;;;;;;5101549;28;20115;-86
2023/10/02 07:46:21;;;;;;;11.98;6.07;;;18.90;99.90;;;;;;5101505;27;20486;-87
2023/10/02 07:49:00;;;;;;;15.07;5.93;;;19.00;99.90;;;;;;5072689;28;20039;-93
2023/10/02 07:51:35;;;;;;;12.85;6.35;;;19.10;99.90;;;;;;5083594;28;20031;-87
2023/10/02 07:54:02;;;;;;;14.95;6.65;;;19.10;99.90;;;;;;5111848;28;20027;-87
2023/10/02 07:56:29;;;;;;;17.83;6.57;;;19.10;99.90;;;;;;5111069;28;20023;-88
2023/10/02 07:59:01;;;;;;;15.20;6.18;;;19.20;99.90;;;;;;5092280;28;20050;-86
2023/10/02 08:01:27;;;;;;;14.88;6.25;;;19.20;99.90;;;;;;5108346;28;21724;-86
2023/10/02 08:03:55;;;;;;;14.43;6.38;;;19.30;99.90;;;;;;5110182;28;20042;-85
2023/10/02 08:11:50;;;;;;;10.68;5.80;;;19.40;99.90;;;;;;5090080;28;20035;-86
2023/10/02 08:14:42;;;;;;;18.25;6.50;;;19.40;99.90;;;;;;5107135;28;20043;-87
2023/10/02 08:17:27;;;;;;;11.27;6.03;;;19.40;99.90;;;;;;5101340;28;20450;-87
2023/10/02 08:19:54;;;;;;;12.60;6.22;;;19.40;99.90;;;;;;5090604;28;20095;-88
2023/10/02 08:22:36;;;;;;;15.73;7.05;;;19.50;99.90;;;;;;5101052;28;20036;-89
2023/10/02 08:25:03;;;;;;;13.15;6.55;;;19.50;99.90;;;;;;5110548;28;20035;-87
2023/10/02 08:27:32;;;;;;;15.43;6.30;;;19.50;99.90;;;;;;5109728;28;20038;-86
2023/10/02 08:29:57;;;;;;;12.07;6.03;;;19.70;99.90;;;;;;5110064;28;20018;-86
2023/10/02 08:32:30;;;;;;;15.82;6.07;;;19.80;99.90;;;;;;5110785;28;20019;-90
2023/10/02 08:34:57;;;;;;;13.77;6.63;;;19.90;99.90;;;;;;5086464;28;20463;-89
2023/10/02 08:37:23;;;;;;;15.65;6.38;;;20.00;99.90;;;;;;5104180;28;20036;-87
2023/10/02 08:39:51;;;;;;;14.52;6.20;;;20.10;99.90;;;;;;5109620;28;20024;-85
2023/10/02 08:42:18;;;;;;;13.98;6.00;;;20.30;99.90;;;;;;5109660;28;20035;-88
2023/10/02 08:44:43;;;;;;;15.43;6.70;;;20.40;99.90;;;;;;5109515;28;20020;-86
2023/10/02 08:47:32;;;;;;;14.10;6.57;;;20.40;99.90;;;;;;5108746;28;20032;-85
2023/10/02 08:50:05;;;;;;;13.60;7.13;;;20.50;99.90;;;;;;5107418;28;20178;-90
2023/10/02 08:52:49;;;;;;;13.88;6.35;;;20.50;99.90;;;;;;5102681;28;20499;-90
2023/10/02 08:55:35;;;;;;;15.30;6.50;;;20.60;99.90;;;;;;5108635;28;20026;-90
2023/10/02 08:58:19;;;;;;;13.93;6.40;;;20.70;99.90;;;;;;5109089;28;20747;-88
2023/10/02 09:03:41;;;;;;;13.15;7.05;;;20.70;99.90;;;;;;5113706;28;20031;-86
2023/10/02 09:06:35;;;;;;;11.30;6.80;;;20.80;99.90;;;;;;5090416;28;20026;-87
2023/10/02 09:09:20;;;;;;;15.82;6.60;;;20.80;99.90;;;;;;5108150;28;20016;-87
2023/10/02 09:11:52;;;;;;;12.75;6.40;;;20.90;99.90;;;;;;5091073;28;20035;-87
2023/10/02 09:16:46;;;;;;;16.67;6.32;;;21.00;99.90;;;;;;5109553;28;20024;-86
2023/10/02 09:19:30;;;;;;;15.35;6.75;;;21.10;99.90;;;;;;5113090;28;20420;-89
2023/10/02 09:22:06;;;;;;;27.08;6.93;;;21.20;99.90;;;;;;5114660;28;20080;-87
2023/10/02 09:24:40;;;;;;;17.20;7.07;;;21.20;99.90;;;;;;5087138;28;20031;-88
2023/10/02 09:27:23;;;;;;;15.55;7.45;;;21.30;99.90;;;;;;5111758;28;20448;-90
2023/10/02 09:30:15;;;;;;;13.63;6.78;;;21.40;99.90;;;;;;5111555;28;20446;-91
2023/10/02 09:32:47;;;;;;;15.10;6.68;;;21.50;99.90;;;;;;5111612;28;20028;-89
2023/10/02 09:35:40;;;;;;;15.80;6.70;;;21.60;99.90;;;;;;5095296;28;20049;-91
2023/10/02 09:38:06;;;;;;;14.20;6.18;;;21.70;99.90;;;;;;5094362;28;20447;-90
2023/10/02 09:40:56;;;;;;;14.32;6.90;;;21.70;99.90;;;;;;5094870;28;20073;-88
2023/10/02 09:43:33;;;;;;;13.40;6.40;;;21.90;99.90;;;;;;5079788;28;20031;-88
2023/10/02 09:46:05;;;;;;;17.05;6.60;;;22.00;99.90;;;;;;5094186;28;20024;-89
2023/10/02 09:51:26;;;;;;;10.73;6.25;;;22.10;99.90;;;;;;5100112;28;20020;-91
2023/10/02 09:54:13;;;;;;;13.88;6.10;;;22.20;99.90;;;;;;5095290;28;20031;-88
2023/10/02 09:56:38;;;;;;;15.20;6.00;;;22.30;99.90;;;;;;5095126;28;20024;-88
2023/10/02 09:59:16;;;;;;;11.88;5.97;;;22.30;99.90;;;;;;5113463;28;20031;-90
2023/10/02 10:02:08;;;;;;;14.23;6.25;;;22.40;99.90;;;;;;5092813;28;20047;-89
2023/10/02 10:05:46;;;;;;;14.52;6.45;;;22.40;99.90;;;;;;5092993;28;20089;-90
2023/10/02 10:07:52;;;;;;;13.07;5.82;;;22.50;99.90;;;;;;5084561;28;20020;-89
2023/10/02 10:11:10;;;;;;;10.57;5.60;;;22.60;99.90;;;;;;5086406;28;20518;-90
2023/10/02 10:13:33;;;;;;;9.93;5.65;;;22.70;99.90;;;;;;5090675;28;20016;-91
2023/10/02 10:16:19;;;;;;;11.00;5.57;;;22.80;99.90;;;;;;5093548;28;20026;-93
2023/10/02 10:22:00;;;;;;;12.80;5.80;;;22.90;99.90;;;;;;5111763;27;20039;-90
2023/10/02 10:27:40;;;;;;;10.88;5.63;;;23.10;99.90;;;;;;5109765;28;20062;-87
2023/10/02 10:30:24;;;;;;;11.43;5.22;;;23.20;99.90;;;;;;5090829;28;20028;-89
2023/10/02 10:35:55;;;;;;;9.48;5.57;;;23.20;99.90;;;;;;5110515;28;20035;-91
2023/10/02 10:38:41;;;;;;;12.45;5.78;;;23.30;99.90;;;;;;5091672;28;20058;-88
2023/10/02 10:41:28;;;;;;;8.90;5.00;;;23.40;99.90;;;;;;5093619;28;20020;-89
2023/10/02 10:43:56;;;;;;;9.98;5.22;;;23.50;99.90;;;;;;5092114;28;20040;-88
2023/10/02 10:46:31;;;;;;;12.82;4.78;;;23.50;99.90;;;;;;5104608;28;20016;-89
2023/10/02 10:49:07;;;;;;;9.30;4.88;;;23.50;99.90;;;;;;5109276;28;20031;-89
2023/10/02 10:51:34;;;;;;;9.27;4.25;;;23.50;99.90;;;;;;5087098;28;20032;-89
2023/10/02 10:54:25;;;;;;;12.50;4.68;;;23.60;99.90;;;;;;5094660;28;20047;-89
2023/10/02 10:57:19;;;;;;;11.88;4.95;;;23.60;99.90;;;;;;5093638;28;20616;-89
2023/10/02 10:59:45;;;;;;;12.20;4.97;;;23.70;99.90;;;;;;5094005;28;20028;-90
2023/10/02 11:02:17;;;;;;;8.75;4.30;;;23.70;99.90;;;;;;5093905;28;20024;-90
2023/10/02 11:04:50;;;;;;;9.57;4.50;;;23.80;99.90;;;;;;5109920;28;20435;-90
2023/10/02 11:07:19;;;;;;;8.95;4.32;;;23.80;99.90;;;;;;5110947;28;20382;-88
2023/10/02 11:13:00;;;;;;;8.05;4.18;;;24.00;99.90;;;;;;4994861;28;20037;-91
2023/10/02 11:18:19;;;;;;;9.98;4.50;;;24.00;99.90;;;;;;5111768;28;20038;-90
2023/10/02 11:20:54;;;;;;;16.20;4.53;;;24.00;99.90;;;;;;5092620;28;20028;-89
2023/10/02 11:23:40;;;;;;;9.60;4.88;;;24.10;99.90;;;;;;5091031;28;20570;-90
2023/10/02 11:26:13;;;;;;;8.93;4.30;;;24.10;99.90;;;;;;5098146;28;20023;-90
2023/10/02 11:28:45;;;;;;;10.15;4.55;;;24.10;99.90;;;;;;5092165;28;20483;-89
2023/10/02 11:31:30;;;;;;;11.00;4.40;;;24.20;99.90;;;;;;5078351;28;20510;-88
2023/10/02 11:34:03;;;;;;;8.15;4.57;;;24.20;99.90;;;;;;5110654;28;20460;-89
2023/10/02 11:36:34;;;;;;;9.05;4.65;;;24.20;99.90;;;;;;5093020;28;20486;-88
2023/10/02 11:39:01;;;;;;;10.00;4.55;;;24.20;99.90;;;;;;5111335;28;20472;-89
2023/10/02 11:41:27;;;;;;;;;;;24.20;99.90;;;;;;5107115;28;20027;-88
2023/10/02 11:43:54;;;;;;;9.88;4.65;;;24.20;99.90;;;;;;5091374;28;20109;-88
2023/10/02 11:46:20;;;;;;;9.30;4.35;;;24.10;99.90;;;;;;5091435;28;20030;-85
2023/10/02 11:48:51;;;;;;;9.45;4.13;;;23.80;99.90;;;;;;5092048;28;20054;-88
2023/10/02 11:51:17;;;;;;;7.55;3.95;;;24.20;99.90;;;;;;5091594;28;20395;-89
2023/10/02 11:53:42;;;;;;;10.00;3.63;;;24.20;99.90;;;;;;5111000;28;20490;-90
2023/10/02 11:56:08;;;;;;;6.75;4.15;;;24.20;99.90;;;;;;5111383;28;20535;-89
2023/10/02 11:58:34;;;;;;;7.53;4.18;;;24.40;99.90;;;;;;5110418;28;20023;-90
2023/10/02 12:01:04;;;;;;;7.90;3.80;;;24.50;99.90;;;;;;5093890;28;20395;-91
2023/10/02 12:03:35;;;;;;;7.18;3.83;;;24.50;99.90;;;;;;5093211;28;20032;-89
2023/10/02 12:06:02;;;;;;;9.80;3.88;;;24.60;99.90;;;;;;5093738;28;20019;-89
2023/10/02 12:08:27;;;;;;;10.82;4.28;;;24.60;99.90;;;;;;5092507;28;20483;-90
2023/10/02 12:10:56;;;;;;;7.05;3.40;;;24.70;99.90;;;;;;5092754;28;20016;-90
2023/10/02 12:13:22;;;;;;;5.88;3.50;;;24.80;99.90;;;;;;5110674;28;20486;-91
2023/10/02 12:15:49;;;;;;;7.97;3.35;;;24.80;99.90;;;;;;5091805;28;20027;-90
2023/10/02 12:18:15;;;;;;;7.93;3.08;;;24.80;99.90;;;;;;5111066;28;20015;-90
2023/10/02 12:20:42;;;;;;;5.82;3.20;;;24.80;99.90;;;;;;5088470;28;20039;-89
2023/10/02 12:23:09;;;;;;;5.77;2.80;;;24.90;99.90;;;;;;5091248;28;20491;-90
2023/10/02 12:25:36;;;;;;;5.00;3.15;;;25.00;99.90;;;;;;5089829;28;20019;-91
2023/10/02 12:28:02;;;;;;;5.88;2.92;;;;;;;;;;5093693;28;20024;-89
2023/10/02 12:30:32;;;;;;;5.80;3.30;;;25.00;99.90;;;;;;5092525;28;20475;-90
2023/10/02 12:33:00;;;;;;;7.82;3.22;;;25.00;99.90;;;;;;5085719;28;20024;-91
2023/10/02 12:35:26;;;;;;;9.27;3.03;;;25.10;99.90;;;;;;5092194;28;20407;-90
2023/10/02 12:37:53;;;;;;;4.95;2.97;;;25.10;99.90;;;;;;5110350;28;20475;-90
2023/10/02 12:40:20;;;;;;;8.82;2.92;;;25.10;99.90;;;;;;5109817;28;20016;-90
2023/10/02 12:42:46;;;;;;;9.98;2.95;;;25.20;99.90;;;;;;5091208;28;20067;-89
2023/10/02 12:45:13;;;;;;;6.07;2.70;;;25.30;99.90;;;;;;5090913;28;20451;-88
2023/10/02 12:47:40;;;;;;;5.07;2.83;;;25.30;99.90;;;;;;5108522;28;20123;-88
2023/10/02 12:50:10;;;;;;;6.28;2.95;;;25.40;99.90;;;;;;5102210;28;20028;-89
2023/10/02 12:52:36;;;;;;;5.15;3.05;;;25.40;99.90;;;;;;5099487;28;20064;-88
2023/10/02 12:55:02;;;;;;;5.13;2.47;;;25.40;99.90;;;;;;5084059;28;20386;-88
2023/10/02 12:57:28;;;;;;;3.70;2.50;;;25.40;99.90;;;;;;5102129;28;20024;-91
2023/10/02 12:59:54;;;;;;;4.70;2.47;;;25.40;99.90;;;;;;5106704;28;20074;-88
2023/10/02 13:02:19;;;;;;;5.43;2.80;;;25.50;99.90;;;;;;5093639;28;20036;-91
2023/10/02 13:04:45;;;;;;;5.30;2.95;;;25.50;99.90;;;;;;5090520;28;20040;-88
2023/10/02 13:07:10;;;;;;;4.07;2.53;;;25.60;99.90;;;;;;5107980;28;20028;-88
2023/10/02 13:09:36;;;;;;;6.50;2.47;;;25.70;99.90;;;;;;5108497;28;20027;-89
2023/10/02 13:12:02;;;;;;;5.22;2.63;;;25.80;99.90;;;;;;5109184;28;20020;-89
2023/10/02 13:14:28;;;;;;;4.32;2.53;;;25.70;99.90;;;;;;5107637;28;20055;-88
2023/10/02 13:16:54;;;;;;;5.13;3.03;;;25.80;99.90;;;;;;5106919;28;20108;-92
2023/10/02 13:19:19;;;;;;;8.93;3.10;;;25.80;99.90;;;;;;5104809;28;20149;-91
2023/10/02 13:21:51;;;;;;;8.50;2.88;;;25.90;99.90;;;;;;5093168;28;20111;-90
2023/10/02 13:24:17;;;;;;;5.13;3.03;;;26.00;99.90;;;;;;5081303;28;20098;-87
2023/10/02 13:26:44;;;;;;;4.75;2.50;;;26.10;99.90;;;;;;5087113;28;20027;-88
2023/10/02 13:29:09;;;;;;;7.03;2.80;;;26.20;99.90;;;;;;5108903;28;20094;-88
2023/10/02 13:31:35;;;;;;;6.53;2.65;;;26.20;99.90;;;;;;5091145;28;20055;-88
2023/10/02 13:34:05;;;;;;;5.88;2.58;;;26.20;99.90;;;;;;5089726;28;20364;-87
2023/10/02 13:36:31;;;;;;;3.95;2.40;;;26.40;99.90;;;;;;5085007;28;20322;-89
2023/10/02 13:38:57;;;;;;;4.28;2.63;;;26.40;99.90;;;;;;5089185;28;20529;-91
2023/10/02 13:41:25;;;;;;;4.88;2.70;;;26.50;99.90;;;;;;5079583;28;20059;-89
2023/10/02 13:43:52;;;;;;;3.58;2.50;;;26.50;99.90;;;;;;5090932;28;20118;-89
2023/10/02 13:46:20;;;;;;;4.05;2.50;;;26.60;99.90;;;;;;5108985;28;20023;-89
2023/10/02 13:48:47;;;;;;;6.90;2.60;;;26.60;99.90;;;;;;5108963;28;20111;-89
2023/10/02 13:51:16;;;;;;;3.67;2.55;;;26.70;99.90;;;;;;5090794;28;20111;-89
2023/10/02 13:53:42;;;;;;;4.47;2.78;;;26.70;99.90;;;;;;5107124;28;20088;-87
2023/10/02 13:56:10;;;;;;;4.32;2.35;;;26.80;99.90;;;;;;5107102;28;20027;-88
2023/10/02 13:58:39;;;;;;;4.68;2.40;;;26.80;99.90;;;;;;5109458;28;20020;-90